This is the latest recevied weather packets stored in our database for station/object KC8PTQ. If no packets are shown the sender has not sent any weather packets the latest 10 day(s).
| Time | Temp. | Humidity | Pressure | Rain* | Wind** | Luminosity | Snow |
|---|---|---|---|---|---|---|---|
| 1778109483 | 10.56° C | 62% | 1014.5 hPa | 0 mm | - | 17 W/m² | - |
| 1778109181 | 10.56° C | 64% | 1014.4 hPa | 0 mm | - | 15 W/m² | - |
| 1778108878 | 10.56° C | 64% | 1014.4 hPa | 0 mm | - | 16 W/m² | - |
| 1778108570 | 10.56° C | 65% | 1014.3 hPa | 0 mm | - | 20 W/m² | - |
| 1778108266 | 10.56° C | 64% | 1014.3 hPa | 0 mm | - | 23 W/m² | - |
| 1778107963 | 11.11° C | 63% | 1014 hPa | 0 mm | - | 27 W/m² | - |
| 1778107659 | 11.11° C | 63% | 1014.2 hPa | 0 mm | - | 25 W/m² | - |
| 1778107356 | 11.67° C | 64% | 1014.2 hPa | 0 mm | - | 25 W/m² | - |
| 1778107052 | 11.67° C | 61% | 1014 hPa | 0 mm | - | 30 W/m² | - |
| 1778106748 | 11.67° C | 55% | 1014 hPa | 0 mm | - | 27 W/m² | - |
| 1778106445 | 12.22° C | 55% | 1014.1 hPa | 0 mm | - | 32 W/m² | - |
| 1778106140 | 12.22° C | 59% | 1013.9 hPa | 0 mm | - | 44 W/m² | - |
| 1778105839 | 12.22° C | 54% | 1013.7 hPa | 0 mm | - | 54 W/m² | - |
| 1778105537 | 12.22° C | 54% | 1013.9 hPa | 0 mm | - | 64 W/m² | - |
| 1778105234 | 12.22° C | 54% | 1013.7 hPa | 0 mm | - | 68 W/m² | - |
| 1778104928 | 12.22° C | 56% | 1013.7 hPa | 0 mm | - | 61 W/m² | - |
| 1778104625 | 12.22° C | 52% | 1013.7 hPa | 0 mm | - | 64 W/m² | - |
| 1778104320 | 12.78° C | 52% | 1013.5 hPa | 0 mm | - | 74 W/m² | - |
| 1778104012 | 12.78° C | 52% | 1013.5 hPa | 0 mm | - | 79 W/m² | - |
| 1778103710 | 12.22° C | 55% | 1013.5 hPa | 0 mm | - | 91 W/m² | - |
| 1778103408 | 12.22° C | 55% | 1013.5 hPa | 0 mm | - | 76 W/m² | - |
| 1778103104 | 12.78° C | 55% | 1013.5 hPa | 0 mm | - | 67 W/m² | - |
| 1778102802 | 12.78° C | 56% | 1013.3 hPa | 0 mm | - | 77 W/m² | - |
| 1778102497 | 12.22° C | 58% | 1013 hPa | 0 mm | - | 116 W/m² | - |
| 1778102193 | 12.22° C | 56% | 1013.2 hPa | 0 mm | - | 109 W/m² | - |
* Rain latest hour (hover to see other rain measurements)
** Current wind speed in m/s (hover to see current wind gust speed)